sensor_id;sensor_type;location;lat;lon;timestamp;P1;durP1;ratioP1;P2;durP2;ratioP2
11931;SDS011;6025;51.368;6.788;2023-04-03T00:03:58;4.33;;;2.50;;
11931;SDS011;6025;51.368;6.788;2023-04-03T00:08:50;4.30;;;2.40;;
11931;SDS011;6025;51.368;6.788;2023-04-03T00:13:42;4.53;;;2.67;;
11931;SDS011;6025;51.368;6.788;2023-04-03T00:18:36;3.47;;;2.50;;
11931;SDS011;6025;51.368;6.788;2023-04-03T00:23:28;5.27;;;2.63;;
11931;SDS011;6025;51.368;6.788;2023-04-03T00:28:19;4.40;;;2.80;;
11931;SDS011;6025;51.368;6.788;2023-04-03T00:33:11;4.90;;;2.77;;
11931;SDS011;6025;51.368;6.788;2023-04-03T00:38:05;4.23;;;3.07;;
11931;SDS011;6025;51.368;6.788;2023-04-03T00:42:57;3.53;;;2.80;;
11931;SDS011;6025;51.368;6.788;2023-04-03T00:47:50;4.17;;;3.10;;
11931;SDS011;6025;51.368;6.788;2023-04-03T00:52:41;3.80;;;3.17;;
11931;SDS011;6025;51.368;6.788;2023-04-03T00:57:37;3.63;;;3.20;;
11931;SDS011;6025;51.368;6.788;2023-04-03T01:02:29;4.23;;;3.40;;
11931;SDS011;6025;51.368;6.788;2023-04-03T01:07:21;4.67;;;3.27;;
11931;SDS011;6025;51.368;6.788;2023-04-03T01:12:15;4.00;;;3.00;;
11931;SDS011;6025;51.368;6.788;2023-04-03T01:22:23;5.20;;;3.20;;
11931;SDS011;6025;51.368;6.788;2023-04-03T01:27:35;3.53;;;2.83;;
11931;SDS011;6025;51.368;6.788;2023-04-03T01:32:28;4.27;;;3.40;;
11931;SDS011;6025;51.368;6.788;2023-04-03T01:37:20;3.60;;;3.00;;
11931;SDS011;6025;51.368;6.788;2023-04-03T01:42:11;4.90;;;3.20;;
11931;SDS011;6025;51.368;6.788;2023-04-03T01:47:04;5.13;;;3.50;;
11931;SDS011;6025;51.368;6.788;2023-04-03T01:51:58;5.10;;;3.53;;
11931;SDS011;6025;51.368;6.788;2023-04-03T01:56:50;4.33;;;3.60;;
11931;SDS011;6025;51.368;6.788;2023-04-03T02:01:41;4.37;;;3.30;;
11931;SDS011;6025;51.368;6.788;2023-04-03T02:06:33;4.23;;;3.57;;
11931;SDS011;6025;51.368;6.788;2023-04-03T02:11:26;3.53;;;3.23;;
11931;SDS011;6025;51.368;6.788;2023-04-03T02:16:18;4.33;;;3.57;;
11931;SDS011;6025;51.368;6.788;2023-04-03T02:21:09;5.07;;;3.50;;
11931;SDS011;6025;51.368;6.788;2023-04-03T02:26:05;4.60;;;3.50;;
11931;SDS011;6025;51.368;6.788;2023-04-03T02:30:59;4.83;;;3.67;;
11931;SDS011;6025;51.368;6.788;2023-04-03T02:35:52;4.90;;;3.70;;
11931;SDS011;6025;51.368;6.788;2023-04-03T02:40:44;4.73;;;3.77;;
11931;SDS011;6025;51.368;6.788;2023-04-03T02:45:36;4.63;;;3.80;;
11931;SDS011;6025;51.368;6.788;2023-04-03T02:50:29;5.40;;;3.83;;
11931;SDS011;6025;51.368;6.788;2023-04-03T02:55:20;4.33;;;3.27;;
11931;SDS011;6025;51.368;6.788;2023-04-03T03:00:12;5.83;;;3.57;;
11931;SDS011;6025;51.368;6.788;2023-04-03T03:05:05;5.03;;;3.90;;
11931;SDS011;6025;51.368;6.788;2023-04-03T03:09:58;4.93;;;3.50;;
11931;SDS011;6025;51.368;6.788;2023-04-03T03:14:50;4.80;;;3.30;;
11931;SDS011;6025;51.368;6.788;2023-04-03T03:19:42;4.30;;;3.33;;
11931;SDS011;6025;51.368;6.788;2023-04-03T03:24:33;6.53;;;3.37;;
11931;SDS011;6025;51.368;6.788;2023-04-03T03:29:26;3.83;;;2.97;;
11931;SDS011;6025;51.368;6.788;2023-04-03T03:34:18;6.67;;;3.23;;
11931;SDS011;6025;51.368;6.788;2023-04-03T03:39:10;4.70;;;3.37;;
11931;SDS011;6025;51.368;6.788;2023-04-03T03:44:01;4.80;;;2.97;;
11931;SDS011;6025;51.368;6.788;2023-04-03T03:48:54;4.27;;;2.77;;
11931;SDS011;6025;51.368;6.788;2023-04-03T03:53:46;5.47;;;2.47;;
11931;SDS011;6025;51.368;6.788;2023-04-03T03:58:38;3.87;;;2.63;;
11931;SDS011;6025;51.368;6.788;2023-04-03T04:03:29;6.07;;;2.70;;
11931;SDS011;6025;51.368;6.788;2023-04-03T04:08:22;4.00;;;2.60;;
11931;SDS011;6025;51.368;6.788;2023-04-03T04:13:14;4.43;;;2.53;;
11931;SDS011;6025;51.368;6.788;2023-04-03T04:18:06;5.07;;;2.60;;
11931;SDS011;6025;51.368;6.788;2023-04-03T04:22:58;4.83;;;2.50;;
11931;SDS011;6025;51.368;6.788;2023-04-03T04:27:51;2.93;;;2.00;;
11931;SDS011;6025;51.368;6.788;2023-04-03T04:32:42;2.77;;;2.07;;
11931;SDS011;6025;51.368;6.788;2023-04-03T04:37:34;4.40;;;1.97;;
11931;SDS011;6025;51.368;6.788;2023-04-03T04:42:26;4.20;;;2.30;;
11931;SDS011;6025;51.368;6.788;2023-04-03T04:47:19;3.73;;;1.93;;
11931;SDS011;6025;51.368;6.788;2023-04-03T04:52:11;5.03;;;2.03;;
11931;SDS011;6025;51.368;6.788;2023-04-03T04:57:02;4.30;;;1.70;;
11931;SDS011;6025;51.368;6.788;2023-04-03T05:01:54;2.63;;;1.50;;
11931;SDS011;6025;51.368;6.788;2023-04-03T05:06:47;2.80;;;1.57;;
11931;SDS011;6025;51.368;6.788;2023-04-03T05:11:39;3.77;;;1.77;;
11931;SDS011;6025;51.368;6.788;2023-04-03T05:16:30;3.77;;;1.57;;
11931;SDS011;6025;51.368;6.788;2023-04-03T05:21:22;2.63;;;1.67;;
11931;SDS011;6025;51.368;6.788;2023-04-03T05:26:17;3.40;;;1.60;;
11931;SDS011;6025;51.368;6.788;2023-04-03T05:31:09;2.83;;;1.53;;
11931;SDS011;6025;51.368;6.788;2023-04-03T05:36:01;2.43;;;1.50;;
11931;SDS011;6025;51.368;6.788;2023-04-03T05:40:54;3.43;;;1.50;;
11931;SDS011;6025;51.368;6.788;2023-04-03T05:45:48;4.83;;;1.40;;
11931;SDS011;6025;51.368;6.788;2023-04-03T05:50:39;4.07;;;1.50;;
11931;SDS011;6025;51.368;6.788;2023-04-03T05:55:32;4.07;;;1.83;;
11931;SDS011;6025;51.368;6.788;2023-04-03T06:00:24;2.57;;;1.50;;
11931;SDS011;6025;51.368;6.788;2023-04-03T06:05:17;3.17;;;1.70;;
11931;SDS011;6025;51.368;6.788;2023-04-03T06:10:10;3.80;;;1.73;;
11931;SDS011;6025;51.368;6.788;2023-04-03T06:15:03;2.63;;;1.70;;
11931;SDS011;6025;51.368;6.788;2023-04-03T06:19:55;2.50;;;1.43;;
11931;SDS011;6025;51.368;6.788;2023-04-03T06:24:49;3.07;;;1.60;;
11931;SDS011;6025;51.368;6.788;2023-04-03T06:29:41;2.93;;;1.57;;
11931;SDS011;6025;51.368;6.788;2023-04-03T06:34:33;4.17;;;1.70;;
11931;SDS011;6025;51.368;6.788;2023-04-03T06:39:25;3.50;;;1.57;;
11931;SDS011;6025;51.368;6.788;2023-04-03T06:44:18;3.70;;;1.70;;
11931;SDS011;6025;51.368;6.788;2023-04-03T06:49:10;9.00;;;1.73;;
11931;SDS011;6025;51.368;6.788;2023-04-03T06:54:02;5.03;;;1.90;;
11931;SDS011;6025;51.368;6.788;2023-04-03T06:58:55;4.80;;;1.80;;
11931;SDS011;6025;51.368;6.788;2023-04-03T07:03:49;3.87;;;1.80;;
11931;SDS011;6025;51.368;6.788;2023-04-03T07:08:41;4.07;;;1.77;;
11931;SDS011;6025;51.368;6.788;2023-04-03T07:13:33;3.73;;;1.70;;
11931;SDS011;6025;51.368;6.788;2023-04-03T07:18:25;2.90;;;1.50;;
11931;SDS011;6025;51.368;6.788;2023-04-03T07:23:18;2.43;;;1.40;;
11931;SDS011;6025;51.368;6.788;2023-04-03T07:28:10;4.23;;;1.40;;
11931;SDS011;6025;51.368;6.788;2023-04-03T07:33:02;3.50;;;1.50;;
11931;SDS011;6025;51.368;6.788;2023-04-03T07:37:54;3.73;;;1.50;;
11931;SDS011;6025;51.368;6.788;2023-04-03T07:42:47;4.00;;;1.60;;
11931;SDS011;6025;51.368;6.788;2023-04-03T07:47:38;2.90;;;1.50;;
11931;SDS011;6025;51.368;6.788;2023-04-03T07:52:30;4.40;;;1.40;;
11931;SDS011;6025;51.368;6.788;2023-04-03T07:57:22;3.07;;;1.60;;
11931;SDS011;6025;51.368;6.788;2023-04-03T08:02:15;3.90;;;1.50;;
11931;SDS011;6025;51.368;6.788;2023-04-03T08:07:07;5.40;;;1.50;;
11931;SDS011;6025;51.368;6.788;2023-04-03T08:11:58;2.70;;;1.40;;
11931;SDS011;6025;51.368;6.788;2023-04-03T08:16:51;5.10;;;1.40;;
11931;SDS011;6025;51.368;6.788;2023-04-03T08:21:44;2.87;;;1.30;;
11931;SDS011;6025;51.368;6.788;2023-04-03T08:26:37;2.57;;;1.27;;
11931;SDS011;6025;51.368;6.788;2023-04-03T08:31:28;5.30;;;1.20;;
11931;SDS011;6025;51.368;6.788;2023-04-03T08:36:22;4.07;;;1.13;;
11931;SDS011;6025;51.368;6.788;2023-04-03T08:41:18;1.40;;;0.90;;
11931;SDS011;6025;51.368;6.788;2023-04-03T08:46:20;2.43;;;1.10;;
11931;SDS011;6025;51.368;6.788;2023-04-03T08:51:15;3.63;;;1.00;;
11931;SDS011;6025;51.368;6.788;2023-04-03T08:56:09;2.67;;;1.10;;
11931;SDS011;6025;51.368;6.788;2023-04-03T09:01:03;2.80;;;1.30;;
11931;SDS011;6025;51.368;6.788;2023-04-03T09:05:57;2.63;;;1.07;;
11931;SDS011;6025;51.368;6.788;2023-04-03T09:10:54;2.53;;;1.00;;
11931;SDS011;6025;51.368;6.788;2023-04-03T09:15:51;2.30;;;1.03;;
11931;SDS011;6025;51.368;6.788;2023-04-03T09:20:48;1.83;;;0.80;;
11931;SDS011;6025;51.368;6.788;2023-04-03T09:25:44;1.20;;;0.70;;
11931;SDS011;6025;51.368;6.788;2023-04-03T09:30:37;1.63;;;0.80;;
11931;SDS011;6025;51.368;6.788;2023-04-03T09:35:29;1.57;;;0.80;;
11931;SDS011;6025;51.368;6.788;2023-04-03T09:45:36;1.20;;;0.77;;
11931;SDS011;6025;51.368;6.788;2023-04-03T09:50:28;2.77;;;1.00;;
11931;SDS011;6025;51.368;6.788;2023-04-03T09:55:21;2.73;;;0.97;;
11931;SDS011;6025;51.368;6.788;2023-04-03T10:00:22;2.27;;;1.00;;
11931;SDS011;6025;51.368;6.788;2023-04-03T10:10:26;1.93;;;0.70;;
11931;SDS011;6025;51.368;6.788;2023-04-03T10:15:18;1.63;;;0.77;;
11931;SDS011;6025;51.368;6.788;2023-04-03T10:20:20;1.40;;;0.90;;
11931;SDS011;6025;51.368;6.788;2023-04-03T10:25:17;0.97;;;0.70;;
11931;SDS011;6025;51.368;6.788;2023-04-03T10:30:18;1.57;;;0.90;;
11931;SDS011;6025;51.368;6.788;2023-04-03T10:35:15;1.90;;;0.90;;
11931;SDS011;6025;51.368;6.788;2023-04-03T10:40:15;2.03;;;1.00;;
11931;SDS011;6025;51.368;6.788;2023-04-03T10:45:21;2.50;;;0.90;;
11931;SDS011;6025;51.368;6.788;2023-04-03T10:50:25;3.50;;;1.10;;
11931;SDS011;6025;51.368;6.788;2023-04-03T10:55:23;1.60;;;0.90;;
11931;SDS011;6025;51.368;6.788;2023-04-03T11:00:20;2.73;;;1.00;;
11931;SDS011;6025;51.368;6.788;2023-04-03T11:05:15;2.80;;;1.13;;
11931;SDS011;6025;51.368;6.788;2023-04-03T11:10:17;4.33;;;1.30;;
11931;SDS011;6025;51.368;6.788;2023-04-03T11:15:15;1.80;;;1.00;;
11931;SDS011;6025;51.368;6.788;2023-04-03T11:20:10;2.33;;;1.13;;
11931;SDS011;6025;51.368;6.788;2023-04-03T11:25:08;2.83;;;1.20;;
11931;SDS011;6025;51.368;6.788;2023-04-03T11:30:14;2.13;;;1.05;;
11931;SDS011;6025;51.368;6.788;2023-04-03T11:35:09;3.20;;;1.30;;
11931;SDS011;6025;51.368;6.788;2023-04-03T11:40:04;2.17;;;1.35;;
11931;SDS011;6025;51.368;6.788;2023-04-03T11:45:22;2.65;;;1.33;;
11931;SDS011;6025;51.368;6.788;2023-04-03T11:50:38;3.08;;;1.58;;
11931;SDS011;6025;51.368;6.788;2023-04-03T11:55:42;2.45;;;1.13;;
11931;SDS011;6025;51.368;6.788;2023-04-03T12:01:10;3.10;;;1.40;;
11931;SDS011;6025;51.368;6.788;2023-04-03T12:11:50;3.17;;;1.45;;
11931;SDS011;6025;51.368;6.788;2023-04-03T12:16:47;2.60;;;1.23;;
11931;SDS011;6025;51.368;6.788;2023-04-03T12:27:05;1.67;;;1.30;;
11931;SDS011;6025;51.368;6.788;2023-04-03T12:32:09;2.30;;;1.40;;
11931;SDS011;6025;51.368;6.788;2023-04-03T12:37:07;1.77;;;1.10;;
11931;SDS011;6025;51.368;6.788;2023-04-03T12:42:06;2.45;;;1.50;;
11931;SDS011;6025;51.368;6.788;2023-04-03T12:47:16;3.40;;;1.40;;
11931;SDS011;6025;51.368;6.788;2023-04-03T12:52:16;1.52;;;1.23;;
11931;SDS011;6025;51.368;6.788;2023-04-03T12:57:11;4.10;;;1.38;;
11931;SDS011;6025;51.368;6.788;2023-04-03T13:02:10;2.83;;;1.60;;
11931;SDS011;6025;51.368;6.788;2023-04-03T13:07:18;2.63;;;1.48;;
11931;SDS011;6025;51.368;6.788;2023-04-03T13:12:11;3.05;;;1.52;;
11931;SDS011;6025;51.368;6.788;2023-04-03T13:17:09;2.75;;;1.50;;
11931;SDS011;6025;51.368;6.788;2023-04-03T13:22:05;2.45;;;1.30;;
11931;SDS011;6025;51.368;6.788;2023-04-03T13:26:59;2.78;;;1.40;;
11931;SDS011;6025;51.368;6.788;2023-04-03T13:31:52;3.78;;;1.30;;
11931;SDS011;6025;51.368;6.788;2023-04-03T13:36:46;4.05;;;1.35;;
11931;SDS011;6025;51.368;6.788;2023-04-03T13:41:48;3.25;;;1.20;;
11931;SDS011;6025;51.368;6.788;2023-04-03T13:46:40;1.90;;;1.30;;
11931;SDS011;6025;51.368;6.788;2023-04-03T13:51:32;4.72;;;2.17;;
11931;SDS011;6025;51.368;6.788;2023-04-03T13:56:26;2.92;;;1.60;;
11931;SDS011;6025;51.368;6.788;2023-04-03T14:01:22;1.98;;;1.23;;
11931;SDS011;6025;51.368;6.788;2023-04-03T14:06:15;2.35;;;1.20;;
11931;SDS011;6025;51.368;6.788;2023-04-03T14:11:10;2.38;;;1.40;;
11931;SDS011;6025;51.368;6.788;2023-04-03T14:16:05;1.70;;;1.15;;
11931;SDS011;6025;51.368;6.788;2023-04-03T14:20:58;4.22;;;1.33;;
11931;SDS011;6025;51.368;6.788;2023-04-03T14:25:49;2.22;;;1.30;;
11931;SDS011;6025;51.368;6.788;2023-04-03T14:30:41;2.47;;;1.30;;
11931;SDS011;6025;51.368;6.788;2023-04-03T14:35:33;1.83;;;1.27;;
11931;SDS011;6025;51.368;6.788;2023-04-03T14:40:26;1.90;;;1.25;;
11931;SDS011;6025;51.368;6.788;2023-04-03T14:45:18;2.63;;;1.60;;
11931;SDS011;6025;51.368;6.788;2023-04-03T14:50:12;2.83;;;1.33;;
11931;SDS011;6025;51.368;6.788;2023-04-03T14:55:06;3.15;;;1.30;;
11931;SDS011;6025;51.368;6.788;2023-04-03T14:59:59;1.95;;;1.20;;
11931;SDS011;6025;51.368;6.788;2023-04-03T15:04:52;2.75;;;1.40;;
11931;SDS011;6025;51.368;6.788;2023-04-03T15:09:44;3.17;;;1.33;;
11931;SDS011;6025;51.368;6.788;2023-04-03T15:14:35;3.15;;;1.30;;
11931;SDS011;6025;51.368;6.788;2023-04-03T15:19:28;2.95;;;1.65;;
11931;SDS011;6025;51.368;6.788;2023-04-03T15:24:26;2.65;;;1.40;;
11931;SDS011;6025;51.368;6.788;2023-04-03T15:29:18;3.00;;;1.50;;
11931;SDS011;6025;51.368;6.788;2023-04-03T15:34:09;2.67;;;1.20;;
11931;SDS011;6025;51.368;6.788;2023-04-03T15:39:02;4.85;;;1.65;;
11931;SDS011;6025;51.368;6.788;2023-04-03T15:43:54;2.17;;;1.40;;
11931;SDS011;6025;51.368;6.788;2023-04-03T15:48:45;3.28;;;1.50;;
11931;SDS011;6025;51.368;6.788;2023-04-03T15:53:37;3.00;;;1.40;;
11931;SDS011;6025;51.368;6.788;2023-04-03T15:58:30;2.20;;;1.23;;
11931;SDS011;6025;51.368;6.788;2023-04-03T16:03:22;3.63;;;1.40;;
11931;SDS011;6025;51.368;6.788;2023-04-03T16:08:14;2.65;;;1.20;;
11931;SDS011;6025;51.368;6.788;2023-04-03T16:13:07;2.65;;;1.23;;
11931;SDS011;6025;51.368;6.788;2023-04-03T16:18:00;4.05;;;1.10;;
11931;SDS011;6025;51.368;6.788;2023-04-03T16:22:52;3.60;;;1.20;;
11931;SDS011;6025;51.368;6.788;2023-04-03T16:27:44;3.97;;;1.38;;
11931;SDS011;6025;51.368;6.788;2023-04-03T16:32:36;5.32;;;1.42;;
11931;SDS011;6025;51.368;6.788;2023-04-03T16:37:29;3.42;;;1.23;;
11931;SDS011;6025;51.368;6.788;2023-04-03T16:42:21;3.45;;;1.20;;
11931;SDS011;6025;51.368;6.788;2023-04-03T16:47:12;2.80;;;1.10;;
11931;SDS011;6025;51.368;6.788;2023-04-03T16:52:06;4.27;;;1.50;;
11931;SDS011;6025;51.368;6.788;2023-04-03T16:56:59;2.10;;;1.30;;
11931;SDS011;6025;51.368;6.788;2023-04-03T17:01:51;2.63;;;1.03;;
11931;SDS011;6025;51.368;6.788;2023-04-03T17:06:42;2.77;;;1.00;;
11931;SDS011;6025;51.368;6.788;2023-04-03T17:11:34;2.33;;;1.10;;
11931;SDS011;6025;51.368;6.788;2023-04-03T17:16:29;1.83;;;1.23;;
11931;SDS011;6025;51.368;6.788;2023-04-03T17:21:21;1.63;;;1.00;;
11931;SDS011;6025;51.368;6.788;2023-04-03T17:26:13;2.90;;;1.10;;
11931;SDS011;6025;51.368;6.788;2023-04-03T17:31:05;3.57;;;1.33;;
11931;SDS011;6025;51.368;6.788;2023-04-03T17:35:58;3.00;;;1.00;;
11931;SDS011;6025;51.368;6.788;2023-04-03T17:40:51;2.93;;;1.23;;
11931;SDS011;6025;51.368;6.788;2023-04-03T17:45:46;2.10;;;1.10;;
11931;SDS011;6025;51.368;6.788;2023-04-03T17:50:38;2.27;;;1.00;;
11931;SDS011;6025;51.368;6.788;2023-04-03T17:55:31;3.40;;;1.03;;
11931;SDS011;6025;51.368;6.788;2023-04-03T18:00:22;1.90;;;0.90;;
11931;SDS011;6025;51.368;6.788;2023-04-03T18:05:14;3.57;;;1.10;;
11931;SDS011;6025;51.368;6.788;2023-04-03T18:10:06;1.97;;;1.03;;
11931;SDS011;6025;51.368;6.788;2023-04-03T18:15:00;1.50;;;0.80;;
11931;SDS011;6025;51.368;6.788;2023-04-03T18:19:53;3.80;;;0.83;;
11931;SDS011;6025;51.368;6.788;2023-04-03T18:24:45;1.33;;;0.90;;
11931;SDS011;6025;51.368;6.788;2023-04-03T18:29:37;2.43;;;1.20;;
11931;SDS011;6025;51.368;6.788;2023-04-03T18:34:30;3.23;;;1.23;;
11931;SDS011;6025;51.368;6.788;2023-04-03T18:39:22;1.87;;;1.10;;
11931;SDS011;6025;51.368;6.788;2023-04-03T18:44:14;1.83;;;0.90;;
11931;SDS011;6025;51.368;6.788;2023-04-03T18:49:07;2.07;;;1.30;;
11931;SDS011;6025;51.368;6.788;2023-04-03T18:54:01;1.83;;;1.00;;
11931;SDS011;6025;51.368;6.788;2023-04-03T18:58:53;1.87;;;1.20;;
11931;SDS011;6025;51.368;6.788;2023-04-03T19:03:44;2.90;;;1.10;;
11931;SDS011;6025;51.368;6.788;2023-04-03T19:08:36;2.43;;;1.10;;
11931;SDS011;6025;51.368;6.788;2023-04-03T19:13:29;6.87;;;1.13;;
11931;SDS011;6025;51.368;6.788;2023-04-03T19:18:21;1.73;;;0.90;;
11931;SDS011;6025;51.368;6.788;2023-04-03T19:23:13;2.93;;;1.00;;
11931;SDS011;6025;51.368;6.788;2023-04-03T19:28:05;1.70;;;1.00;;
11931;SDS011;6025;51.368;6.788;2023-04-03T19:32:58;2.13;;;0.90;;
11931;SDS011;6025;51.368;6.788;2023-04-03T19:37:49;2.30;;;1.10;;
11931;SDS011;6025;51.368;6.788;2023-04-03T19:42:42;3.13;;;1.10;;
11931;SDS011;6025;51.368;6.788;2023-04-03T19:47:34;3.30;;;0.80;;
11931;SDS011;6025;51.368;6.788;2023-04-03T19:52:26;1.97;;;0.90;;
11931;SDS011;6025;51.368;6.788;2023-04-03T19:57:18;3.17;;;0.90;;
11931;SDS011;6025;51.368;6.788;2023-04-03T20:02:09;2.13;;;0.97;;
11931;SDS011;6025;51.368;6.788;2023-04-03T20:07:01;2.87;;;1.00;;
11931;SDS011;6025;51.368;6.788;2023-04-03T20:11:54;3.97;;;1.00;;
11931;SDS011;6025;51.368;6.788;2023-04-03T20:16:49;2.53;;;1.10;;
11931;SDS011;6025;51.368;6.788;2023-04-03T20:21:40;1.40;;;1.00;;
11931;SDS011;6025;51.368;6.788;2023-04-03T20:26:32;2.33;;;1.00;;
11931;SDS011;6025;51.368;6.788;2023-04-03T20:31:34;1.93;;;0.90;;
11931;SDS011;6025;51.368;6.788;2023-04-03T20:36:26;2.00;;;0.80;;
11931;SDS011;6025;51.368;6.788;2023-04-03T20:41:19;2.50;;;1.10;;
11931;SDS011;6025;51.368;6.788;2023-04-03T20:46:11;2.73;;;1.20;;
11931;SDS011;6025;51.368;6.788;2023-04-03T20:51:09;3.23;;;1.00;;
11931;SDS011;6025;51.368;6.788;2023-04-03T20:56:01;2.43;;;1.03;;
11931;SDS011;6025;51.368;6.788;2023-04-03T21:00:54;2.27;;;0.97;;
11931;SDS011;6025;51.368;6.788;2023-04-03T21:05:45;2.70;;;1.23;;
11931;SDS011;6025;51.368;6.788;2023-04-03T21:20:59;2.10;;;1.27;;
11931;SDS011;6025;51.368;6.788;2023-04-03T21:25:52;3.50;;;1.10;;
11931;SDS011;6025;51.368;6.788;2023-04-03T21:30:43;2.10;;;1.20;;
11931;SDS011;6025;51.368;6.788;2023-04-03T21:35:35;2.77;;;1.13;;
11931;SDS011;6025;51.368;6.788;2023-04-03T21:40:28;1.60;;;1.00;;
11931;SDS011;6025;51.368;6.788;2023-04-03T21:45:20;2.60;;;1.13;;
11931;SDS011;6025;51.368;6.788;2023-04-03T21:50:12;1.83;;;1.13;;
11931;SDS011;6025;51.368;6.788;2023-04-03T21:55:04;3.33;;;1.20;;
11931;SDS011;6025;51.368;6.788;2023-04-03T21:59:59;3.13;;;1.40;;
11931;SDS011;6025;51.368;6.788;2023-04-03T22:04:50;2.73;;;1.20;;
11931;SDS011;6025;51.368;6.788;2023-04-03T22:09:43;2.77;;;1.20;;
11931;SDS011;6025;51.368;6.788;2023-04-03T22:14:35;4.17;;;1.17;;
11931;SDS011;6025;51.368;6.788;2023-04-03T22:19:28;3.00;;;1.30;;
11931;SDS011;6025;51.368;6.788;2023-04-03T22:24:19;1.60;;;1.07;;
11931;SDS011;6025;51.368;6.788;2023-04-03T22:29:11;2.10;;;1.00;;
11931;SDS011;6025;51.368;6.788;2023-04-03T22:34:03;1.73;;;1.00;;
11931;SDS011;6025;51.368;6.788;2023-04-03T22:38:56;1.90;;;1.00;;
11931;SDS011;6025;51.368;6.788;2023-04-03T22:43:49;2.00;;;1.10;;
11931;SDS011;6025;51.368;6.788;2023-04-03T22:48:41;2.00;;;1.27;;
11931;SDS011;6025;51.368;6.788;2023-04-03T22:53:34;3.63;;;1.30;;
11931;SDS011;6025;51.368;6.788;2023-04-03T22:58:27;2.77;;;0.90;;
11931;SDS011;6025;51.368;6.788;2023-04-03T23:03:19;2.43;;;1.13;;
11931;SDS011;6025;51.368;6.788;2023-04-03T23:08:12;2.37;;;1.10;;
11931;SDS011;6025;51.368;6.788;2023-04-03T23:13:03;2.13;;;1.27;;
11931;SDS011;6025;51.368;6.788;2023-04-03T23:17:56;1.40;;;0.90;;
11931;SDS011;6025;51.368;6.788;2023-04-03T23:22:48;2.93;;;1.30;;
11931;SDS011;6025;51.368;6.788;2023-04-03T23:27:39;3.77;;;1.20;;
11931;SDS011;6025;51.368;6.788;2023-04-03T23:32:31;2.67;;;1.27;;
11931;SDS011;6025;51.368;6.788;2023-04-03T23:37:24;2.03;;;1.17;;
11931;SDS011;6025;51.368;6.788;2023-04-03T23:42:16;1.80;;;1.13;;
11931;SDS011;6025;51.368;6.788;2023-04-03T23:47:07;2.23;;;1.13;;
11931;SDS011;6025;51.368;6.788;2023-04-03T23:51:59;2.27;;;1.17;;
11931;SDS011;6025;51.368;6.788;2023-04-03T23:56:52;2.60;;;1.13;;
